Terminal Aerodrome Forecast
Issued by NWS Corpus Christi, TX

Current Version | Previous Version | Text Only | Print | Product List | Glossary On
Versions: 1 2 3 4 5 6 7 8 9 10 11 12 13 14
000
FTUS44 KCRP 281129
TAFCRP
TAF
KCRP 281129Z 2812/2912 16008KT P6SM SCT025 BKN250
     FM281500 17012KT P6SM VCSH SCT035 BKN250
     FM281800 14015G22KT P6SM VCTS OVC045CB
     FM290000 14010KT P6SM SCT035 BKN250
     FM290600 16004KT P6SM SCT015 BKN250=

USA.gov is the U.S. government's official web portal to all federal, state and local government web resources and services.